Nearby METAR Reports

 

RPLL - Ninoy Aquino Int, Philippines
Distance from station: S 15km
Updated: 04/23/2019 6:00pm
Few Clouds
Few Clouds
 Wind from E
Wind: E 19 km/h
Temperature: 32°C
Heat Index: 36°C
Dew Point: 22°C
Humidity: 55%
Barometer: 1008 hPa
Clouds: Few Clouds
Visibility: 10 km
Cloud details: Few Clouds 762 m
2019/04/23 10:00 RPLL 231000Z 10010KT 070V150 9999 FEW025 32/22 Q1008 NOSIG RMK A2977
RPLC - Angeles/Pampanga, Philippines
Distance from station: NW 71km
Updated: 04/23/2019 6:00pm
Partly cloudy
Partly cloudy
 Wind from NNE
Wind: NNE 7 km/h
Temperature: 32°C
Heat Index: 36°C
Dew Point: 22°C
Humidity: 55%
Barometer: 1009 hPa
Clouds: Partly cloudy
Visibility: 10 km
Cloud details: Few Clouds 610 m
Partly cloudy 9144 m
2019/04/23 10:00 RPLC 231000Z 02004KT 9999 FEW020 SCT300 32/22 Q1009 NOSIG RMK A2980
 
RPLB - Olongapo/Subic, Philippines
Distance from station: WNW 78km
Updated: 04/23/2019 6:00pm
Few Clouds
Few Clouds
 Wind from E
Wind: E 22 km/h
Temperature: 33°C
Heat Index: 35°C
Dew Point: 20°C
Humidity: 46%
Barometer: 1008 hPa
Clouds: Few Clouds
Visibility: 10 km
Cloud details: Few Clouds 610 m
2019/04/23 10:00 RPLB 231000Z 09012KT 9999 FEW020 33/20 Q1008 NOSIG RMK A2977
RPMR - Romblon/Tablas I, Philippines
Distance from station: SSE 270km
Updated: 04/23/2019 5:00pm
NOT Current
Partly cloudy
Partly cloudy
 Wind from NE
Wind: NE 15 km/h
Temperature: 32°C
Heat Index: 34°C
Dew Point: 20°C
Humidity: 49%
Barometer: 1008 hPa
Clouds: Partly cloudy
Visibility: 10 km
Cloud details: Few Clouds 549 m
Partly cloudy 7620 m
2019/04/23 09:00 RPMR 230900Z 04008KT 9999 FEW018 SCT250 32/20 Q1008 NOSIG RMK A2977
 
RPLI - Laoag Intl(Ph-Ar, Philippines
Distance from station: N 394km
Updated: 04/23/2019 6:00pm
Partly cloudy
Partly cloudy
 Wind from N
Wind: N 7 km/h
Barometer: 1009 hPa
Clouds: Partly cloudy
Visibility: 10 km
Cloud details: Few Clouds 518 m
Partly cloudy 3048 m
2019/04/23 10:00 RPLI 231000Z 36004KT 9999 FEW017CB SCT10030/26 Q1009 NOSIG RMK A2980 CB E
RPVM - Mactan-Cebu, Philippines
Distance from station: SE 582km
Updated: 04/23/2019 6:00pm
Few Clouds
Few Clouds
 Wind from ENE
Wind: ENE 9 km/h
Temperature: 29°C
Heat Index: 31°C
Dew Point: 21°C
Humidity: 62%
Barometer: 1009 hPa
Clouds: Few Clouds
Visibility: 10 km
Cloud details: Few Clouds 610 m
2019/04/23 10:00 RPVM 231000Z 06005KT 9999 FEW020 29/21 Q1009 RMK A2980
 
RPVP - Puerto Princesa, Philippines
Distance from station: SSW 598km
Updated: 04/23/2019 6:00pm
Partly cloudy
Partly cloudy
 Wind from ESE
Wind: ESE 7 km/h
Temperature: 31°C
Heat Index: 36°C
Dew Point: 23°C
Humidity: 62%
Barometer: 1008 hPa
Clouds: Partly cloudy
Visibility: 10 km
Cloud details: Few Clouds 579 m
Partly cloudy 2438 m
2019/04/23 10:00 RPVP 231000Z 12004KT 9999 FEW019 SCT080 31/23 Q1008 RMK A2977
RPVD - Dumaguete/Negros, Philippines
Distance from station: SSE 643km
Updated: 04/23/2019 5:00pm
NOT Current
Few Clouds
Few Clouds
 Wind from NE
Wind: NE 15 km/h
Temperature: 30°C
Heat Index: 35°C
Dew Point: 24°C
Humidity: 70%
Barometer: 1007 hPa
Clouds: Few Clouds
Visibility: 10 km
Cloud details: Few Clouds 457 m
2019/04/23 09:00 RPVD 230900Z 04008KT 9999 FEW015 30/24 Q1007 RMK A2974
 
RPMZ - Zamboanga (civ/A, Philippines
Distance from station: S 868km
Updated: 04/23/2019 6:00pm
Partly cloudy
Partly cloudy
 Wind from W
Wind: W 7 km/h
Temperature: 28°C
Heat Index: 32°C
Dew Point: 25°C
Humidity: 84%
Barometer: 1007 hPa
Clouds: Partly cloudy
Visibility: 10 km
Cloud details: Few Clouds 518 m
Partly cloudy 9144 m
2019/04/23 10:00 RPMZ 231000Z 27004KT 9999 FEW017 SCT300 28/25 Q1007 RMK A2974
RPMD - Davao/Francisco, Philippines
Distance from station: SSE 980km
Updated: 04/23/2019 6:00pm
Mostly cloudy
Mostly cloudy
 Wind from NE
Wind: NE 7 km/h
Temperature: 31°C
Heat Index: 37°C
Dew Point: 24°C
Humidity: 66%
Barometer: 1008 hPa
Clouds: Mostly cloudy
Visibility: 10 km
Cloud details: Partly cloudy 488 m
Partly cloudy 2743 m
Mostly cloudy 8839 m
2019/04/23 10:00 RPMD 231000Z 04004KT 9999 SCT016 SCT090 BKN290 31/24 Q1008 RMK A2977
www.000webhost.com